Pretoria, South Africa

11:30 AM SAST on December 08, 2016 (GMT +0200)
Gezina | | Change Station

Elev 4154 ft 25.71 °S, 28.21 °E | Updated 14 seconds ago

Clear
Clear
85.3 °F
Feels Like 85 °F
N
4.0
Wind Variable Wind from NNW
Gusts 11.0 mph

Today
High -- | Low -- °F
--% Chance of Precip.
Yesterday
High -- | Low -- °F
Precip. -- in
Pressure 30.15 in
Visibility -9999.0 miles
Clouds
Heat Index 85 °F
Dew Point 59 °F
Humidity 41%
Rainfall 0.00 in
Snow Depth Not available.
5:08 AM 6:50 PM
First Quarter, 61% visible
METAR FAWB 080900Z AUTO 35005KT //// // ////// 29/15 Q1021
Pressure 30.15 in
Visibility -9999.0 miles
Clouds
Heat Index 85 °F
Dew Point 59 °F
Humidity 41%
Rainfall 0.00 in
Snow Depth Not available.
5:08 AM 6:50 PM
First Quarter, 61% visible
METAR FAWB 080900Z AUTO 35005KT //// // ////// 29/15 Q1021

10-Day Weather Forecast

No radar image for this location.
×

Almanac

Astronomy

Dec. 08, 2016 Rise Set
Actual Time
Civil Twilight
Nautical Twilight
Astronomical Twilight
Moon
Length of Visible Light
Length of Day
Tomorrow will be .
, % of the Moon is Illuminated

Today's Extremes

Country Highs Country Lows

Community

WunderPhotos

Upload Photos

1,956,259 photos uploaded!

WunderBlog® & News

Nearby

Air Quality

  Air Quality AQ Index Pollutant
Not available.

Snow Depth

Station Depth Elevation

Earthquake Activity

City Distance Mag. Time & Date
Minimum magnitude displayed is 2.5.

Coastal Water Temperatures

Place Temperature

Stations

Nearby Weather Stations

Station Location Temp. Windchill Dew Point Humidity Wind Precip. Elev Updated Type